sensor_id;sensor_type;location;lat;lon;timestamp;temperature;humidity
54558;DHT22;40452;50.080;20.040;2023-08-12T04:18:08;20.30;61.90
54558;DHT22;40452;50.080;20.040;2023-08-12T04:20:33;20.30;61.70
54558;DHT22;40452;50.080;20.040;2023-08-12T04:22:59;20.30;62.00
54558;DHT22;40452;50.080;20.040;2023-08-12T04:25:25;20.20;62.00
54558;DHT22;40452;50.080;20.040;2023-08-12T04:27:50;20.30;62.20
54558;DHT22;40452;50.080;20.040;2023-08-12T04:30:17;20.20;62.00
54558;DHT22;40452;50.080;20.040;2023-08-12T04:32:43;20.30;61.90
54558;DHT22;40452;50.080;20.040;2023-08-12T04:35:09;20.30;61.90
54558;DHT22;40452;50.080;20.040;2023-08-12T04:37:35;20.30;61.90
54558;DHT22;40452;50.080;20.040;2023-08-12T04:40:02;20.30;62.10
54558;DHT22;40452;50.080;20.040;2023-08-12T04:42:30;20.30;62.10
54558;DHT22;40452;50.080;20.040;2023-08-12T04:44:55;20.20;62.00
54558;DHT22;40452;50.080;20.040;2023-08-12T04:47:21;20.30;62.10
54558;DHT22;40452;50.080;20.040;2023-08-12T04:49:47;20.30;61.90
54558;DHT22;40452;50.080;20.040;2023-08-12T04:52:13;20.30;61.70
54558;DHT22;40452;50.080;20.040;2023-08-12T04:54:38;20.20;61.80
54558;DHT22;40452;50.080;20.040;2023-08-12T04:57:04;20.20;61.70
54558;DHT22;40452;50.080;20.040;2023-08-12T04:59:31;20.20;61.70
54558;DHT22;40452;50.080;20.040;2023-08-12T05:01:56;20.10;61.60
54558;DHT22;40452;50.080;20.040;2023-08-12T05:04:22;20.20;61.60
54558;DHT22;40452;50.080;20.040;2023-08-12T05:06:47;20.10;61.50
54558;DHT22;40452;50.080;20.040;2023-08-12T05:09:14;20.20;61.50
54558;DHT22;40452;50.080;20.040;2023-08-12T05:11:40;20.20;61.50
54558;DHT22;40452;50.080;20.040;2023-08-12T05:14:05;20.20;61.40
54558;DHT22;40452;50.080;20.040;2023-08-12T05:16:31;20.20;61.50
54558;DHT22;40452;50.080;20.040;2023-08-12T05:18:56;20.30;61.50
54558;DHT22;40452;50.080;20.040;2023-08-12T05:21:22;20.40;61.70
54558;DHT22;40452;50.080;20.040;2023-08-12T05:23:48;20.50;61.10
54558;DHT22;40452;50.080;20.040;2023-08-12T05:26:13;20.60;61.00
54558;DHT22;40452;50.080;20.040;2023-08-12T05:28:39;20.70;60.90
54558;DHT22;40452;50.080;20.040;2023-08-12T05:31:05;20.70;60.80
54558;DHT22;40452;50.080;20.040;2023-08-12T05:33:30;20.70;60.80
54558;DHT22;40452;50.080;20.040;2023-08-12T05:35:56;20.70;60.70
54558;DHT22;40452;50.080;20.040;2023-08-12T05:38:21;20.70;60.70
54558;DHT22;40452;50.080;20.040;2023-08-12T05:40:47;20.70;60.60
54558;DHT22;40452;50.080;20.040;2023-08-12T05:43:13;20.80;60.50
54558;DHT22;40452;50.080;20.040;2023-08-12T05:45:38;20.80;60.40
54558;DHT22;40452;50.080;20.040;2023-08-12T05:48:04;20.80;60.40
54558;DHT22;40452;50.080;20.040;2023-08-12T05:50:30;20.80;60.40
54558;DHT22;40452;50.080;20.040;2023-08-12T05:52:55;20.80;60.40
54558;DHT22;40452;50.080;20.040;2023-08-12T05:55:21;20.80;60.70
54558;DHT22;40452;50.080;20.040;2023-08-12T05:57:46;20.90;60.80
54558;DHT22;40452;50.080;20.040;2023-08-12T06:00:12;20.90;60.80
54558;DHT22;40452;50.080;20.040;2023-08-12T06:02:38;20.90;60.80
54558;DHT22;40452;50.080;20.040;2023-08-12T06:05:04;21.00;60.90
54558;DHT22;40452;50.080;20.040;2023-08-12T06:07:30;21.00;60.80
54558;DHT22;40452;50.080;20.040;2023-08-12T06:09:55;21.00;60.80
54558;DHT22;40452;50.080;20.040;2023-08-12T06:12:21;21.00;60.80
54558;DHT22;40452;50.080;20.040;2023-08-12T06:14:46;21.10;60.90
54558;DHT22;40452;50.080;20.040;2023-08-12T06:17:12;21.10;61.00
54558;DHT22;40452;50.080;20.040;2023-08-12T06:19:38;21.10;61.00
54558;DHT22;40452;50.080;20.040;2023-08-12T06:22:03;21.10;61.10
54558;DHT22;40452;50.080;20.040;2023-08-12T06:24:29;21.10;61.30
54558;DHT22;40452;50.080;20.040;2023-08-12T06:26:54;21.10;61.00
54558;DHT22;40452;50.080;20.040;2023-08-12T06:29:20;21.10;61.00
54558;DHT22;40452;50.080;20.040;2023-08-12T06:31:46;21.10;60.80
54558;DHT22;40452;50.080;20.040;2023-08-12T06:34:11;21.20;60.90
54558;DHT22;40452;50.080;20.040;2023-08-12T06:36:37;21.20;61.10
54558;DHT22;40452;50.080;20.040;2023-08-12T06:39:03;21.20;61.00
54558;DHT22;40452;50.080;20.040;2023-08-12T06:41:28;21.20;61.10
54558;DHT22;40452;50.080;20.040;2023-08-12T06:43:54;21.30;61.20
54558;DHT22;40452;50.080;20.040;2023-08-12T06:46:20;21.20;60.90
54558;DHT22;40452;50.080;20.040;2023-08-12T06:48:45;21.20;60.90
54558;DHT22;40452;50.080;20.040;2023-08-12T06:51:11;21.30;60.90
54558;DHT22;40452;50.080;20.040;2023-08-12T06:53:38;21.30;61.50
54558;DHT22;40452;50.080;20.040;2023-08-12T06:56:03;21.40;60.70
54558;DHT22;40452;50.080;20.040;2023-08-12T06:58:29;21.30;61.20
54558;DHT22;40452;50.080;20.040;2023-08-12T07:00:55;21.40;61.30
54558;DHT22;40452;50.080;20.040;2023-08-12T07:03:21;21.40;60.30
54558;DHT22;40452;50.080;20.040;2023-08-12T07:05:47;21.20;60.60
54558;DHT22;40452;50.080;20.040;2023-08-12T07:08:12;21.00;61.40
54558;DHT22;40452;50.080;20.040;2023-08-12T07:10:39;20.90;61.20
54558;DHT22;40452;50.080;20.040;2023-08-12T07:13:05;21.00;61.50
54558;DHT22;40452;50.080;20.040;2023-08-12T07:15:30;21.00;61.40
54558;DHT22;40452;50.080;20.040;2023-08-12T07:17:56;21.00;61.60
54558;DHT22;40452;50.080;20.040;2023-08-12T07:20:24;21.00;62.40
54558;DHT22;40452;50.080;20.040;2023-08-12T07:22:49;21.00;62.80
54558;DHT22;40452;50.080;20.040;2023-08-12T07:25:15;21.00;63.50
54558;DHT22;40452;50.080;20.040;2023-08-12T07:27:41;21.10;63.60
54558;DHT22;40452;50.080;20.040;2023-08-12T07:30:07;21.10;61.90
54558;DHT22;40452;50.080;20.040;2023-08-12T07:32:33;21.10;61.40
54558;DHT22;40452;50.080;20.040;2023-08-12T07:34:59;21.00;60.50
54558;DHT22;40452;50.080;20.040;2023-08-12T07:37:25;21.10;61.00
54558;DHT22;40452;50.080;20.040;2023-08-12T07:39:51;20.90;59.30
54558;DHT22;40452;50.080;20.040;2023-08-12T07:42:17;20.70;59.40
54558;DHT22;40452;50.080;20.040;2023-08-12T07:44:42;20.70;59.50
54558;DHT22;40452;50.080;20.040;2023-08-12T07:47:08;20.80;60.50
54558;DHT22;40452;50.080;20.040;2023-08-12T07:49:34;20.80;60.70
54558;DHT22;40452;50.080;20.040;2023-08-12T07:52:00;21.00;60.90
54558;DHT22;40452;50.080;20.040;2023-08-12T07:54:26;21.00;60.50
54558;DHT22;40452;50.080;20.040;2023-08-12T07:56:52;21.10;59.50
54558;DHT22;40452;50.080;20.040;2023-08-12T07:59:19;21.10;59.60
54558;DHT22;40452;50.080;20.040;2023-08-12T08:01:45;21.10;59.20
54558;DHT22;40452;50.080;20.040;2023-08-12T08:04:10;21.10;60.00
54558;DHT22;40452;50.080;20.040;2023-08-12T08:06:36;21.20;60.00
54558;DHT22;40452;50.080;20.040;2023-08-12T08:09:02;21.20;59.80
54558;DHT22;40452;50.080;20.040;2023-08-12T08:11:29;21.20;59.50
54558;DHT22;40452;50.080;20.040;2023-08-12T08:13:55;21.20;59.20
54558;DHT22;40452;50.080;20.040;2023-08-12T08:16:21;21.20;59.00
54558;DHT22;40452;50.080;20.040;2023-08-12T08:18:47;21.20;57.80
54558;DHT22;40452;50.080;20.040;2023-08-12T08:21:12;21.20;58.00
54558;DHT22;40452;50.080;20.040;2023-08-12T08:23:40;21.20;58.30
54558;DHT22;40452;50.080;20.040;2023-08-12T08:26:06;21.20;58.30
54558;DHT22;40452;50.080;20.040;2023-08-12T08:28:32;21.30;59.30
54558;DHT22;40452;50.080;20.040;2023-08-12T08:30:58;21.30;58.80
54558;DHT22;40452;50.080;20.040;2023-08-12T08:33:25;21.30;57.90
54558;DHT22;40452;50.080;20.040;2023-08-12T08:35:51;21.30;57.80
54558;DHT22;40452;50.080;20.040;2023-08-12T08:38:16;21.30;56.80
54558;DHT22;40452;50.080;20.040;2023-08-12T08:40:42;21.30;57.00
54558;DHT22;40452;50.080;20.040;2023-08-12T08:43:09;21.30;56.60
54558;DHT22;40452;50.080;20.040;2023-08-12T08:45:36;21.30;56.80
54558;DHT22;40452;50.080;20.040;2023-08-12T08:48:02;21.30;57.40
54558;DHT22;40452;50.080;20.040;2023-08-12T08:50:30;21.30;57.70
54558;DHT22;40452;50.080;20.040;2023-08-12T08:52:56;21.40;57.40
54558;DHT22;40452;50.080;20.040;2023-08-12T08:55:22;21.40;58.20
54558;DHT22;40452;50.080;20.040;2023-08-12T08:57:48;21.40;57.70
54558;DHT22;40452;50.080;20.040;2023-08-12T09:00:16;21.40;58.00
54558;DHT22;40452;50.080;20.040;2023-08-12T09:02:44;21.40;57.00
54558;DHT22;40452;50.080;20.040;2023-08-12T09:05:11;21.40;57.60
54558;DHT22;40452;50.080;20.040;2023-08-12T09:07:39;21.40;58.00
54558;DHT22;40452;50.080;20.040;2023-08-12T09:10:07;21.40;57.40
54558;DHT22;40452;50.080;20.040;2023-08-12T09:12:34;21.40;55.90
54558;DHT22;40452;50.080;20.040;2023-08-12T09:14:59;21.40;56.60
54558;DHT22;40452;50.080;20.040;2023-08-12T09:17:25;21.40;56.60
54558;DHT22;40452;50.080;20.040;2023-08-12T09:19:51;21.40;55.80
54558;DHT22;40452;50.080;20.040;2023-08-12T09:22:18;21.40;56.00
54558;DHT22;40452;50.080;20.040;2023-08-12T09:24:43;21.40;55.40
54558;DHT22;40452;50.080;20.040;2023-08-12T09:27:09;21.40;55.30
54558;DHT22;40452;50.080;20.040;2023-08-12T09:29:36;21.40;55.10
54558;DHT22;40452;50.080;20.040;2023-08-12T09:32:18;21.40;55.50
54558;DHT22;40452;50.080;20.040;2023-08-12T09:34:52;21.40;56.10
54558;DHT22;40452;50.080;20.040;2023-08-12T09:37:19;21.40;56.50
54558;DHT22;40452;50.080;20.040;2023-08-12T09:39:46;21.40;56.60
54558;DHT22;40452;50.080;20.040;2023-08-12T09:42:11;21.40;56.70
54558;DHT22;40452;50.080;20.040;2023-08-12T09:44:38;21.40;56.80
54558;DHT22;40452;50.080;20.040;2023-08-12T09:47:05;21.50;56.90
54558;DHT22;40452;50.080;20.040;2023-08-12T09:49:30;21.40;56.90
54558;DHT22;40452;50.080;20.040;2023-08-12T09:51:56;21.50;57.10
54558;DHT22;40452;50.080;20.040;2023-08-12T09:54:22;21.50;57.20
54558;DHT22;40452;50.080;20.040;2023-08-12T09:56:55;21.50;57.40
54558;DHT22;40452;50.080;20.040;2023-08-12T09:59:23;21.50;57.50
54558;DHT22;40452;50.080;20.040;2023-08-12T10:01:49;21.50;57.90
54558;DHT22;40452;50.080;20.040;2023-08-12T10:04:22;21.50;57.90
54558;DHT22;40452;50.080;20.040;2023-08-12T10:06:48;21.50;57.60
54558;DHT22;40452;50.080;20.040;2023-08-12T10:09:16;21.50;57.80
54558;DHT22;40452;50.080;20.040;2023-08-12T10:11:46;21.50;57.80
54558;DHT22;40452;50.080;20.040;2023-08-12T10:14:12;21.50;58.00
54558;DHT22;40452;50.080;20.040;2023-08-12T10:16:38;21.50;58.20
54558;DHT22;40452;50.080;20.040;2023-08-12T10:19:05;21.50;58.40
54558;DHT22;40452;50.080;20.040;2023-08-12T10:21:31;21.50;58.60
54558;DHT22;40452;50.080;20.040;2023-08-12T10:23:58;21.50;58.60
54558;DHT22;40452;50.080;20.040;2023-08-12T10:26:25;21.50;59.00
54558;DHT22;40452;50.080;20.040;2023-08-12T10:28:51;21.50;59.20
54558;DHT22;40452;50.080;20.040;2023-08-12T10:31:16;21.50;59.20
54558;DHT22;40452;50.080;20.040;2023-08-12T10:33:43;21.60;59.60
54558;DHT22;40452;50.080;20.040;2023-08-12T10:36:09;21.60;59.70
54558;DHT22;40452;50.080;20.040;2023-08-12T10:38:35;21.60;59.80
54558;DHT22;40452;50.080;20.040;2023-08-12T10:44:00;21.60;60.00
54558;DHT22;40452;50.080;20.040;2023-08-12T10:46:33;21.60;60.10
54558;DHT22;40452;50.080;20.040;2023-08-12T10:51:48;21.70;60.00
54558;DHT22;40452;50.080;20.040;2023-08-12T10:54:19;21.70;60.60
54558;DHT22;40452;50.080;20.040;2023-08-12T10:57:07;21.70;60.80
54558;DHT22;40452;50.080;20.040;2023-08-12T11:02:16;21.70;60.30
54558;DHT22;40452;50.080;20.040;2023-08-12T11:04:43;21.70;60.60
54558;DHT22;40452;50.080;20.040;2023-08-12T11:07:19;21.70;60.90
54558;DHT22;40452;50.080;20.040;2023-08-12T11:09:46;21.70;60.90
54558;DHT22;40452;50.080;20.040;2023-08-12T11:12:18;21.70;61.20
54558;DHT22;40452;50.080;20.040;2023-08-12T11:15:08;21.70;60.90
54558;DHT22;40452;50.080;20.040;2023-08-12T11:17:38;21.70;61.30
54558;DHT22;40452;50.080;20.040;2023-08-12T11:20:06;21.70;61.40
54558;DHT22;40452;50.080;20.040;2023-08-12T11:22:43;21.80;61.70
54558;DHT22;40452;50.080;20.040;2023-08-12T11:25:12;21.80;61.40
54558;DHT22;40452;50.080;20.040;2023-08-12T11:27:45;21.80;61.50
54558;DHT22;40452;50.080;20.040;2023-08-12T11:30:13;21.80;61.50
54558;DHT22;40452;50.080;20.040;2023-08-12T11:32:41;21.80;61.90
54558;DHT22;40452;50.080;20.040;2023-08-12T11:35:08;21.80;62.00
54558;DHT22;40452;50.080;20.040;2023-08-12T11:37:40;21.80;62.10
54558;DHT22;40452;50.080;20.040;2023-08-12T11:40:07;21.80;62.20
54558;DHT22;40452;50.080;20.040;2023-08-12T11:42:38;21.80;62.00
54558;DHT22;40452;50.080;20.040;2023-08-12T11:45:05;21.80;62.10
54558;DHT22;40452;50.080;20.040;2023-08-12T11:47:32;21.80;62.10
54558;DHT22;40452;50.080;20.040;2023-08-12T11:49:58;21.80;62.20
54558;DHT22;40452;50.080;20.040;2023-08-12T11:52:27;21.80;62.00
54558;DHT22;40452;50.080;20.040;2023-08-12T11:54:53;21.80;62.00
54558;DHT22;40452;50.080;20.040;2023-08-12T11:57:19;21.80;61.90
54558;DHT22;40452;50.080;20.040;2023-08-12T11:59:44;21.80;62.00
54558;DHT22;40452;50.080;20.040;2023-08-12T12:02:11;21.80;62.10
54558;DHT22;40452;50.080;20.040;2023-08-12T12:04:37;21.80;62.10
54558;DHT22;40452;50.080;20.040;2023-08-12T12:07:03;21.80;62.10
54558;DHT22;40452;50.080;20.040;2023-08-12T12:09:43;21.80;62.20
54558;DHT22;40452;50.080;20.040;2023-08-12T12:12:10;21.80;62.00
54558;DHT22;40452;50.080;20.040;2023-08-12T12:14:36;21.80;61.90
54558;DHT22;40452;50.080;20.040;2023-08-12T12:17:07;21.90;61.90
54558;DHT22;40452;50.080;20.040;2023-08-12T12:19:34;21.80;62.00
54558;DHT22;40452;50.080;20.040;2023-08-12T12:22:03;21.80;62.10
54558;DHT22;40452;50.080;20.040;2023-08-12T12:24:30;21.80;62.00
54558;DHT22;40452;50.080;20.040;2023-08-12T12:26:56;21.80;61.80
54558;DHT22;40452;50.080;20.040;2023-08-12T12:29:22;21.80;62.60
54558;DHT22;40452;50.080;20.040;2023-08-12T12:31:48;21.80;61.90
54558;DHT22;40452;50.080;20.040;2023-08-12T12:34:13;21.80;62.00
54558;DHT22;40452;50.080;20.040;2023-08-12T12:36:40;21.90;62.00
54558;DHT22;40452;50.080;20.040;2023-08-12T12:39:06;21.90;61.80
54558;DHT22;40452;50.080;20.040;2023-08-12T12:41:32;21.90;61.90
54558;DHT22;40452;50.080;20.040;2023-08-12T12:44:00;21.90;61.90
54558;DHT22;40452;50.080;20.040;2023-08-12T12:46:27;21.90;62.00
54558;DHT22;40452;50.080;20.040;2023-08-12T12:48:52;21.90;61.80
54558;DHT22;40452;50.080;20.040;2023-08-12T12:51:18;22.00;61.90
54558;DHT22;40452;50.080;20.040;2023-08-12T12:53:43;21.90;61.90
54558;DHT22;40452;50.080;20.040;2023-08-12T12:56:09;21.90;62.00
54558;DHT22;40452;50.080;20.040;2023-08-12T12:58:36;21.90;62.70
54558;DHT22;40452;50.080;20.040;2023-08-12T13:01:03;21.90;62.00
54558;DHT22;40452;50.080;20.040;2023-08-12T13:03:31;21.90;62.00
54558;DHT22;40452;50.080;20.040;2023-08-12T13:05:57;21.90;62.10
54558;DHT22;40452;50.080;20.040;2023-08-12T13:08:22;21.90;62.10
54558;DHT22;40452;50.080;20.040;2023-08-12T13:10:48;21.90;62.10
54558;DHT22;40452;50.080;20.040;2023-08-12T13:13:14;21.90;62.20
54558;DHT22;40452;50.080;20.040;2023-08-12T13:15:44;22.00;61.80
54558;DHT22;40452;50.080;20.040;2023-08-12T13:18:10;22.00;61.40
54558;DHT22;40452;50.080;20.040;2023-08-12T13:20:36;22.00;61.00
54558;DHT22;40452;50.080;20.040;2023-08-12T13:23:02;22.00;60.40
54558;DHT22;40452;50.080;20.040;2023-08-12T13:25:30;22.00;60.40
54558;DHT22;40452;50.080;20.040;2023-08-12T13:27:57;22.00;60.20
54558;DHT22;40452;50.080;20.040;2023-08-12T13:30:23;22.00;60.00
54558;DHT22;40452;50.080;20.040;2023-08-12T13:32:48;22.00;60.10
54558;DHT22;40452;50.080;20.040;2023-08-12T13:35:14;22.00;59.60
54558;DHT22;40452;50.080;20.040;2023-08-12T13:37:39;22.00;60.00
54558;DHT22;40452;50.080;20.040;2023-08-12T13:40:06;22.00;60.00
54558;DHT22;40452;50.080;20.040;2023-08-12T13:42:31;22.00;60.00
54558;DHT22;40452;50.080;20.040;2023-08-12T13:44:57;22.00;59.90
54558;DHT22;40452;50.080;20.040;2023-08-12T13:47:23;22.10;60.30
54558;DHT22;40452;50.080;20.040;2023-08-12T13:49:48;22.10;59.90
54558;DHT22;40452;50.080;20.040;2023-08-12T13:52:15;22.10;59.20
54558;DHT22;40452;50.080;20.040;2023-08-12T13:54:40;22.10;59.20
54558;DHT22;40452;50.080;20.040;2023-08-12T13:57:06;22.10;59.00
54558;DHT22;40452;50.080;20.040;2023-08-12T13:59:31;22.10;59.00
54558;DHT22;40452;50.080;20.040;2023-08-12T14:01:57;22.10;59.10
54558;DHT22;40452;50.080;20.040;2023-08-12T14:04:22;22.10;59.20
54558;DHT22;40452;50.080;20.040;2023-08-12T14:06:48;22.10;59.20
54558;DHT22;40452;50.080;20.040;2023-08-12T14:09:13;22.10;59.10
54558;DHT22;40452;50.080;20.040;2023-08-12T14:11:42;22.00;58.90
54558;DHT22;40452;50.080;20.040;2023-08-12T14:14:08;22.10;59.00
54558;DHT22;40452;50.080;20.040;2023-08-12T14:16:34;22.10;59.00
54558;DHT22;40452;50.080;20.040;2023-08-12T14:19:00;22.10;58.80
54558;DHT22;40452;50.080;20.040;2023-08-12T14:21:25;22.10;58.80
54558;DHT22;40452;50.080;20.040;2023-08-12T14:23:51;22.10;58.80
54558;DHT22;40452;50.080;20.040;2023-08-12T14:26:16;22.10;58.50
54558;DHT22;40452;50.080;20.040;2023-08-12T14:28:42;22.10;58.20
54558;DHT22;40452;50.080;20.040;2023-08-12T14:31:08;22.10;58.40
54558;DHT22;40452;50.080;20.040;2023-08-12T14:33:33;22.10;58.40
54558;DHT22;40452;50.080;20.040;2023-08-12T14:35:59;22.10;58.30
54558;DHT22;40452;50.080;20.040;2023-08-12T14:38:24;22.10;58.40
54558;DHT22;40452;50.080;20.040;2023-08-12T14:40:50;22.10;58.40
54558;DHT22;40452;50.080;20.040;2023-08-12T14:43:15;22.10;58.10
54558;DHT22;40452;50.080;20.040;2023-08-12T14:45:42;22.10;58.30
54558;DHT22;40452;50.080;20.040;2023-08-12T14:48:09;22.10;58.20
54558;DHT22;40452;50.080;20.040;2023-08-12T14:50:37;22.10;58.20
54558;DHT22;40452;50.080;20.040;2023-08-12T14:53:03;22.10;58.30
54558;DHT22;40452;50.080;20.040;2023-08-12T14:55:28;22.10;58.40
54558;DHT22;40452;50.080;20.040;2023-08-12T14:57:54;22.10;58.40
54558;DHT22;40452;50.080;20.040;2023-08-12T15:00:20;22.10;58.30
54558;DHT22;40452;50.080;20.040;2023-08-12T15:02:46;22.10;58.40
54558;DHT22;40452;50.080;20.040;2023-08-12T15:05:11;22.20;58.50
54558;DHT22;40452;50.080;20.040;2023-08-12T15:07:37;22.10;58.40
54558;DHT22;40452;50.080;20.040;2023-08-12T15:10:03;22.10;58.30
54558;DHT22;40452;50.080;20.040;2023-08-12T15:12:29;22.20;58.30
54558;DHT22;40452;50.080;20.040;2023-08-12T15:14:55;22.10;58.40
54558;DHT22;40452;50.080;20.040;2023-08-12T15:17:21;22.10;58.30
54558;DHT22;40452;50.080;20.040;2023-08-12T15:19:47;22.10;58.30
54558;DHT22;40452;50.080;20.040;2023-08-12T15:22:13;22.10;58.20
54558;DHT22;40452;50.080;20.040;2023-08-12T15:24:38;22.20;58.40
54558;DHT22;40452;50.080;20.040;2023-08-12T15:27:04;22.20;58.40
54558;DHT22;40452;50.080;20.040;2023-08-12T15:29:29;22.20;58.50
54558;DHT22;40452;50.080;20.040;2023-08-12T15:31:55;22.10;58.40
54558;DHT22;40452;50.080;20.040;2023-08-12T15:34:21;22.20;58.20
54558;DHT22;40452;50.080;20.040;2023-08-12T15:36:47;22.20;58.30
54558;DHT22;40452;50.080;20.040;2023-08-12T15:39:13;22.20;58.30
54558;DHT22;40452;50.080;20.040;2023-08-12T15:41:42;22.20;58.30
54558;DHT22;40452;50.080;20.040;2023-08-12T15:44:12;22.20;58.10
54558;DHT22;40452;50.080;20.040;2023-08-12T15:46:38;22.20;58.10
54558;DHT22;40452;50.080;20.040;2023-08-12T15:49:04;22.20;58.10
54558;DHT22;40452;50.080;20.040;2023-08-12T15:51:36;22.20;58.20
54558;DHT22;40452;50.080;20.040;2023-08-12T15:54:02;22.20;58.20
54558;DHT22;40452;50.080;20.040;2023-08-12T15:56:27;22.10;58.20
54558;DHT22;40452;50.080;20.040;2023-08-12T15:58:53;22.20;58.40
54558;DHT22;40452;50.080;20.040;2023-08-12T16:01:18;22.20;59.10
54558;DHT22;40452;50.080;20.040;2023-08-12T16:03:48;22.10;58.40
54558;DHT22;40452;50.080;20.040;2023-08-12T16:06:14;22.20;58.40
54558;DHT22;40452;50.080;20.040;2023-08-12T16:08:39;22.10;58.40
54558;DHT22;40452;50.080;20.040;2023-08-12T16:11:05;22.10;58.50
54558;DHT22;40452;50.080;20.040;2023-08-12T16:13:30;22.20;58.50
54558;DHT22;40452;50.080;20.040;2023-08-12T16:15:57;22.20;58.40
54558;DHT22;40452;50.080;20.040;2023-08-12T16:18:24;22.20;58.40
54558;DHT22;40452;50.080;20.040;2023-08-12T16:20:50;22.20;58.60
54558;DHT22;40452;50.080;20.040;2023-08-12T16:23:15;22.20;58.50
54558;DHT22;40452;50.080;20.040;2023-08-12T16:25:41;22.20;58.60
54558;DHT22;40452;50.080;20.040;2023-08-12T16:28:07;22.20;58.60
54558;DHT22;40452;50.080;20.040;2023-08-12T16:30:32;22.20;58.70
54558;DHT22;40452;50.080;20.040;2023-08-12T16:32:58;22.20;58.70
54558;DHT22;40452;50.080;20.040;2023-08-12T16:35:24;22.20;58.70
54558;DHT22;40452;50.080;20.040;2023-08-12T16:37:49;22.20;58.80
54558;DHT22;40452;50.080;20.040;2023-08-12T16:40:15;22.20;58.60
54558;DHT22;40452;50.080;20.040;2023-08-12T16:42:40;22.20;58.60
54558;DHT22;40452;50.080;20.040;2023-08-12T16:45:07;22.20;58.70
54558;DHT22;40452;50.080;20.040;2023-08-12T16:47:32;22.20;58.70
54558;DHT22;40452;50.080;20.040;2023-08-12T16:49:58;22.20;58.70
54558;DHT22;40452;50.080;20.040;2023-08-12T16:52:24;22.20;58.70
54558;DHT22;40452;50.080;20.040;2023-08-12T16:54:50;22.10;58.60
54558;DHT22;40452;50.080;20.040;2023-08-12T16:57:15;22.10;58.60
54558;DHT22;40452;50.080;20.040;2023-08-12T16:59:41;22.10;58.70
54558;DHT22;40452;50.080;20.040;2023-08-12T17:02:07;22.10;59.40
54558;DHT22;40452;50.080;20.040;2023-08-12T17:04:32;22.20;59.00
54558;DHT22;40452;50.080;20.040;2023-08-12T17:06:58;22.20;59.00
54558;DHT22;40452;50.080;20.040;2023-08-12T17:09:23;22.20;59.20
54558;DHT22;40452;50.080;20.040;2023-08-12T17:11:49;22.20;59.20
54558;DHT22;40452;50.080;20.040;2023-08-12T17:14:15;22.20;59.30
54558;DHT22;40452;50.080;20.040;2023-08-12T17:16:41;22.20;59.60
54558;DHT22;40452;50.080;20.040;2023-08-12T17:19:07;22.20;59.70
54558;DHT22;40452;50.080;20.040;2023-08-12T17:21:32;22.20;59.80
54558;DHT22;40452;50.080;20.040;2023-08-12T17:23:58;22.20;60.00
54558;DHT22;40452;50.080;20.040;2023-08-12T17:26:25;22.20;60.10
54558;DHT22;40452;50.080;20.040;2023-08-12T17:28:50;22.20;60.10
54558;DHT22;40452;50.080;20.040;2023-08-12T17:31:17;22.20;60.20
54558;DHT22;40452;50.080;20.040;2023-08-12T17:33:43;22.20;60.30
54558;DHT22;40452;50.080;20.040;2023-08-12T17:36:09;22.20;60.40
54558;DHT22;40452;50.080;20.040;2023-08-12T17:38:35;22.20;60.60
54558;DHT22;40452;50.080;20.040;2023-08-12T17:41:01;22.20;60.60
54558;DHT22;40452;50.080;20.040;2023-08-12T17:43:28;22.20;60.80
54558;DHT22;40452;50.080;20.040;2023-08-12T17:45:54;22.20;60.90
54558;DHT22;40452;50.080;20.040;2023-08-12T17:48:19;22.20;61.10
54558;DHT22;40452;50.080;20.040;2023-08-12T17:50:45;22.20;61.10
54558;DHT22;40452;50.080;20.040;2023-08-12T17:53:10;22.20;61.20
54558;DHT22;40452;50.080;20.040;2023-08-12T17:55:36;22.20;61.20
54558;DHT22;40452;50.080;20.040;2023-08-12T17:58:02;22.20;61.40
54558;DHT22;40452;50.080;20.040;2023-08-12T18:00:28;22.20;61.50
54558;DHT22;40452;50.080;20.040;2023-08-12T18:02:53;22.20;61.70
54558;DHT22;40452;50.080;20.040;2023-08-12T18:05:19;22.20;61.70
54558;DHT22;40452;50.080;20.040;2023-08-12T18:07:45;22.20;61.70
54558;DHT22;40452;50.080;20.040;2023-08-12T18:10:11;22.20;61.80
54558;DHT22;40452;50.080;20.040;2023-08-12T18:12:37;22.20;61.80
54558;DHT22;40452;50.080;20.040;2023-08-12T18:15:03;22.20;61.90
54558;DHT22;40452;50.080;20.040;2023-08-12T18:17:29;22.20;61.80
54558;DHT22;40452;50.080;20.040;2023-08-12T18:19:54;22.20;61.90
54558;DHT22;40452;50.080;20.040;2023-08-12T18:22:23;22.20;62.10
54558;DHT22;40452;50.080;20.040;2023-08-12T18:24:49;22.30;62.00
54558;DHT22;40452;50.080;20.040;2023-08-12T18:27:14;22.30;62.00
54558;DHT22;40452;50.080;20.040;2023-08-12T18:29:40;22.30;62.30
54558;DHT22;40452;50.080;20.040;2023-08-12T18:32:07;22.20;62.40
54558;DHT22;40452;50.080;20.040;2023-08-12T18:34:33;22.20;62.30
54558;DHT22;40452;50.080;20.040;2023-08-12T18:36:59;22.30;62.60
54558;DHT22;40452;50.080;20.040;2023-08-12T18:39:24;22.30;62.80
54558;DHT22;40452;50.080;20.040;2023-08-12T18:41:50;22.30;62.80
54558;DHT22;40452;50.080;20.040;2023-08-12T18:44:16;22.30;62.70
54558;DHT22;40452;50.080;20.040;2023-08-12T18:46:42;22.30;62.70
54558;DHT22;40452;50.080;20.040;2023-08-12T18:49:07;22.30;62.80
54558;DHT22;40452;50.080;20.040;2023-08-12T18:51:33;22.30;62.90
54558;DHT22;40452;50.080;20.040;2023-08-12T18:53:58;22.30;63.10
54558;DHT22;40452;50.080;20.040;2023-08-12T18:56:24;22.30;63.20
54558;DHT22;40452;50.080;20.040;2023-08-12T18:58:50;22.40;63.60
54558;DHT22;40452;50.080;20.040;2023-08-12T19:01:19;22.40;63.10
54558;DHT22;40452;50.080;20.040;2023-08-12T19:03:44;22.30;63.50
54558;DHT22;40452;50.080;20.040;2023-08-12T19:06:10;22.30;63.20
54558;DHT22;40452;50.080;20.040;2023-08-12T19:08:35;22.30;63.30
54558;DHT22;40452;50.080;20.040;2023-08-12T19:11:01;22.30;63.50
54558;DHT22;40452;50.080;20.040;2023-08-12T19:13:27;22.30;63.70
54558;DHT22;40452;50.080;20.040;2023-08-12T19:15:56;22.30;63.90
54558;DHT22;40452;50.080;20.040;2023-08-12T19:18:22;22.30;63.80
54558;DHT22;40452;50.080;20.040;2023-08-12T19:20:48;22.30;63.80
54558;DHT22;40452;50.080;20.040;2023-08-12T19:23:13;22.40;63.70
54558;DHT22;40452;50.080;20.040;2023-08-12T19:25:40;22.30;64.40
54558;DHT22;40452;50.080;20.040;2023-08-12T19:28:05;22.30;64.20
54558;DHT22;40452;50.080;20.040;2023-08-12T19:30:31;22.30;64.00
54558;DHT22;40452;50.080;20.040;2023-08-12T19:32:57;22.30;65.00
54558;DHT22;40452;50.080;20.040;2023-08-12T19:35:23;22.40;64.60